This is the latest recevied weather packets stored in our database for station/object MB7UIK. If no packets are shown the sender has not sent any weather packets the latest 1 day(s).
| Time | Temp. | Humidity | Pressure | Rain* | Wind** | Luminosity | Snow |
|---|---|---|---|---|---|---|---|
| 1777982504 | 15° C | 2% | 1011.5 hPa | 0 mm | 1.79 m/s, 76° | - | - |
| 1777982445 | 15° C | 1% | 1011.6 hPa | 0 mm | 2.68 m/s, 86° | - | - |
| 1777982385 | 15° C | 2% | 1011.4 hPa | 0 mm | 0.89 m/s, 40° | - | - |
| 1777982325 | 15° C | 1% | 1011.4 hPa | 0 mm | 3.13 m/s, 40° | - | - |
| 1777982265 | 15° C | 1% | 1011.5 hPa | 0 mm | 0.89 m/s, 110° | - | - |
| 1777982233 | 15° C | 1% | 1011.5 hPa | 0 mm | 0.89 m/s, 110° | - | - |
| 1777982205 | 15° C | 2% | 1011.4 hPa | 0 mm | 1.34 m/s, 74° | - | - |
| 1777982145 | 15° C | 2% | 1011.5 hPa | 0 mm | 1.34 m/s, 59° | - | - |
| 1777982086 | 15° C | 3% | 1011.5 hPa | 0 mm | 2.68 m/s, 360° | - | - |
| 1777982026 | 15° C | 5% | 1011.4 hPa | 0 mm | 2.24 m/s, 55° | - | - |
| 1777981966 | 15° C | 6% | 1011.5 hPa | 0 mm | 0.89 m/s, 23° | - | - |
| 1777981932 | 15° C | 6% | 1011.5 hPa | 0 mm | 0.89 m/s, 23° | - | - |
| 1777981905 | 15° C | 5% | 1011.4 hPa | 0 mm | 1.79 m/s, 80° | - | - |
| 1777981845 | 15° C | 4% | 1011.5 hPa | 0 mm | 2.68 m/s, 19° | - | - |
| 1777981785 | 15° C | 3% | 1011.5 hPa | 0 mm | 2.24 m/s, 28° | - | - |
| 1777981724 | 15° C | 4% | 1011.5 hPa | 0 mm | 2.24 m/s, 342° | - | - |
| 1777981664 | 15° C | 4% | 1011.5 hPa | 0 mm | 2.68 m/s, 40° | - | - |
| 1777981632 | 15° C | 4% | 1011.5 hPa | 0 mm | 2.68 m/s, 40° | - | - |
| 1777981605 | 15° C | 3% | 1011.5 hPa | 0 mm | 1.79 m/s, 9° | - | - |
| 1777981545 | 15° C | 2% | 1011.6 hPa | 0 mm | 1.79 m/s, 19° | - | - |
| 1777981485 | 15° C | 1% | 1011.6 hPa | 0 mm | 1.79 m/s, 360° | - | - |
| 1777981425 | 15° C | 100% | 1011.6 hPa | 0 mm | 1.79 m/s, 5° | - | - |
| 1777981365 | 15° C | 100% | 1011.6 hPa | 0 mm | 0.89 m/s, 9° | - | - |
| 1777981333 | 15° C | 100% | 1011.6 hPa | 0 mm | 0.89 m/s, 9° | - | - |
| 1777981305 | 15.56° C | 1% | 1011.6 hPa | 0 mm | 1.34 m/s, 355° | - | - |
* Rain latest hour (hover to see other rain measurements)
** Current wind speed in m/s (hover to see current wind gust speed)